Time;durP1;ratioP1;P1;durP2;ratioP2;P2;SDS_P1;SDS_P2;PMS_P1;PMS_P2;Temp;Humidity;BMP_temperature;BMP_pressure;BME280_temperature;BME280_humidity;BME280_pressure;Samples;Min_cycle;Max_cycle;Signal;HPM_P1;HPM_P2
2022/04/18 00:00:53;;;;;;;2.22;2.17;;;;;;;-141.48;100.00;69781.59;5210701;28;20231;-60
2022/04/18 00:03:23;;;;;;;2.92;2.83;;;;;;;-141.48;100.00;69781.59;5209946;28;20059;-59
2022/04/18 00:05:54;;;;;;;3.60;2.25;;;;;;;-141.48;100.00;69781.59;5210171;28;20029;-60
2022/04/18 00:08:24;;;;;;;2.83;2.72;;;;;;;-141.48;100.00;69781.59;5210348;28;20032;-60
2022/04/18 00:10:55;;;;;;;3.65;3.38;;;;;;;-141.48;100.00;69781.59;5210177;28;20115;-60
2022/04/18 00:13:25;;;;;;;2.75;2.65;;;;;;;-141.48;100.00;69781.59;5227436;28;20033;-60
2022/04/18 00:15:56;;;;;;;2.75;2.65;;;;;;;-141.48;100.00;69781.59;5209873;28;20047;-60
2022/04/18 00:18:26;;;;;;;2.95;2.75;;;;;;;-141.48;100.00;69781.59;5210344;28;20386;-62
2022/04/18 00:20:56;;;;;;;2.60;2.50;;;;;;;-141.48;100.00;69781.59;5209899;28;20029;-60
2022/04/18 00:23:27;;;;;;;2.35;2.25;;;;;;;-141.48;100.00;69781.59;5209674;28;20024;-60
2022/04/18 00:25:57;;;;;;;2.70;2.50;;;;;;;-141.48;100.00;69781.59;5210036;28;20167;-60
2022/04/18 00:28:28;;;;;;;3.25;3.08;;;;;;;-141.48;100.00;69781.59;5227451;28;20028;-60
2022/04/18 00:30:58;;;;;;;2.22;2.13;;;;;;;-141.48;100.00;69781.59;5209781;28;20025;-60
2022/04/18 00:33:29;;;;;;;3.22;3.03;;;;;;;-141.48;100.00;69781.59;5209572;28;20024;-60
2022/04/18 00:36:00;;;;;;;2.47;2.38;;;;;;;-141.48;100.00;69781.59;5209580;28;20045;-60
2022/04/18 00:38:30;;;;;;;14.65;3.33;;;;;;;-141.48;100.00;69781.59;5227825;28;20029;-60
2022/04/18 00:41:01;;;;;;;2.55;2.45;;;;;;;-141.48;100.00;69781.59;5209505;28;20825;-60
2022/04/18 00:43:40;;;;;;;2.72;2.63;;;;;;;-141.48;100.00;69781.59;5209247;28;20033;-60
2022/04/18 00:46:13;;;;;;;2.42;2.33;;;;;;;-141.48;100.00;69781.59;5209628;28;20036;-59
2022/04/18 00:48:44;;;;;;;5.15;2.92;;;;;;;-141.48;100.00;69781.59;5209708;28;20025;-60
2022/04/18 00:51:19;;;;;;;3.78;3.45;;;;;;;-141.48;100.00;69781.59;5209161;28;20035;-60
2022/04/18 00:53:53;;;;;;;2.97;2.88;;;;;;;-141.48;100.00;69781.59;5225900;28;20032;-60
2022/04/18 00:56:25;;;;;;;3.15;3.05;;;;;;;-141.48;100.00;69781.59;5209495;28;20119;-60
2022/04/18 00:58:56;;;;;;;2.80;2.70;;;;;;;-141.48;100.00;69781.59;5209272;28;20112;-60
2022/04/18 01:01:27;;;;;;;2.78;2.67;;;;;;;-141.48;100.00;69781.59;5209309;28;20103;-60
2022/04/18 01:03:57;;;;;;;2.67;2.58;;;;;;;-141.48;100.00;69781.59;5208729;28;20578;-59
2022/04/18 01:06:28;;;;;;;3.13;2.92;;;;;;;-141.48;100.00;69781.59;5209278;28;20029;-60
2022/04/18 01:08:59;;;;;;;2.58;2.47;;;;;;;-141.48;100.00;69781.59;5226807;28;20063;-60
2022/04/18 01:11:32;;;;;;;4.05;3.35;;;;;;;-141.48;100.00;69781.59;5208965;28;20025;-60
2022/04/18 01:14:03;;;;;;;3.25;3.15;;;;;;;-141.48;100.00;69781.59;5208773;28;20029;-59
2022/04/18 01:16:33;;;;;;;3.50;3.30;;;;;;;-141.48;100.00;69781.59;5226849;28;20052;-60
2022/04/18 01:19:04;;;;;;;2.80;2.70;;;;;;;-141.48;100.00;69781.59;5208933;28;20119;-60
2022/04/18 01:21:35;;;;;;;3.70;3.50;;;;;;;-141.48;100.00;69781.59;5208973;28;20059;-59
2022/04/18 01:28:58;;;;;;;3.08;2.95;;;;;;;-141.48;100.00;69781.59;5225601;28;20498;-60
2022/04/18 01:29:44;;;;;;;2.78;2.67;;;;;;;-141.48;100.00;69781.59;5226971;28;20087;-60
2022/04/18 01:32:15;;;;;;;2.70;2.60;;;;;;;-141.48;100.00;69781.59;5208605;28;20029;-59
2022/04/18 01:34:45;;;;;;;3.03;2.83;;;;;;;-141.48;100.00;69781.59;5208234;28;20229;-59
2022/04/18 01:37:16;;;;;;;3.40;3.22;;;;;;;-141.48;100.00;69781.59;5208899;28;20028;-59
2022/04/18 01:39:46;;;;;;;3.45;3.25;;;;;;;-141.48;100.00;69781.59;5208713;28;20102;-60
2022/04/18 01:42:17;;;;;;;3.47;3.28;;;;;;;-141.48;100.00;69781.59;5208684;28;20021;-60
2022/04/18 01:44:48;;;;;;;3.00;2.90;;;;;;;-141.48;100.00;69781.59;5208265;28;20025;-59
2022/04/18 01:47:18;;;;;;;4.05;3.83;;;;;;;-141.48;100.00;69781.59;5224788;28;20543;-60
2022/04/18 01:49:48;;;;;;;2.75;2.65;;;;;;;-141.48;100.00;69781.59;5208650;28;20025;-60
2022/04/18 01:52:19;;;;;;;3.08;2.95;;;;;;;-141.48;100.00;69781.59;5226406;28;20115;-59
2022/04/18 01:54:49;;;;;;;3.95;3.67;;;;;;;-141.48;100.00;69781.59;5208328;28;20538;-59
2022/04/18 01:57:20;;;;;;;6.28;3.28;;;;;;;-141.48;100.00;69781.59;5208263;28;20094;-59
2022/04/18 01:59:50;;;;;;;3.00;2.90;;;;;;;-141.48;100.00;69781.59;5208082;28;20402;-59
2022/04/18 02:02:21;;;;;;;3.35;3.13;;;;;;;-141.48;100.00;69781.59;5208313;28;20068;-58
2022/04/18 02:04:51;;;;;;;2.85;2.63;;;;;;;-141.48;100.00;69781.59;5225872;28;20438;-58
2022/04/18 02:07:22;;;;;;;3.88;3.58;;;;;;;-141.48;100.00;69781.59;5208221;28;20021;-58
2022/04/18 02:09:52;;;;;;;3.08;2.97;;;;;;;-141.48;100.00;69781.59;5208220;28;20033;-60
2022/04/18 02:12:23;;;;;;;3.05;2.95;;;;;;;-141.48;100.00;69781.59;5208028;28;20032;-60
2022/04/18 02:14:53;;;;;;;4.07;3.85;;;;;;;-141.48;100.00;69781.59;5207514;28;20060;-58
2022/04/18 02:17:23;;;;;;;3.63;3.53;;;;;;;-141.48;100.00;69781.59;5208072;28;20518;-58
2022/04/18 02:19:54;;;;;;;3.70;3.50;;;;;;;-141.48;100.00;69781.59;5207862;28;20035;-58
2022/04/18 02:22:24;;;;;;;4.05;3.83;;;;;;;-141.48;100.00;69781.59;5208042;28;20087;-58
2022/04/18 02:24:58;;;;;;;5.25;3.47;;;;;;;-141.48;100.00;69781.59;5207445;28;20103;-58
2022/04/18 02:27:28;;;;;;;3.78;3.58;;;;;;;-141.48;100.00;69781.59;5207782;28;20033;-60
2022/04/18 02:29:59;;;;;;;3.58;3.28;;;;;;;-141.48;100.00;69781.59;5207652;28;20025;-63
2022/04/18 02:32:47;;;;;;;4.32;3.92;;;;;;;-141.48;100.00;69781.59;5207593;28;20040;-59
2022/04/18 02:35:22;;;;;;;3.35;3.17;;;;;;;-141.48;100.00;69781.59;5207037;28;20124;-58
2022/04/18 02:37:54;;;;;;;4.05;3.85;;;;;;;-141.48;100.00;69781.59;5207386;28;20079;-59
2022/04/18 02:40:24;;;;;;;3.58;3.38;;;;;;;-141.48;100.00;69781.59;5207530;28;20091;-59
2022/04/18 02:42:55;;;;;;;3.47;3.38;;;;;;;-141.48;100.00;69781.59;5207587;28;20418;-59
2022/04/18 02:45:27;;;;;;;4.28;4.00;;;;;;;-141.48;100.00;69781.59;5207359;28;20091;-59
2022/04/18 02:47:57;;;;;;;4.40;3.80;;;;;;;-141.48;100.00;69781.59;5207219;28;20021;-59
2022/04/18 02:50:28;;;;;;;6.18;5.25;;;;;;;-141.48;100.00;69781.59;5207399;28;20044;-59
2022/04/18 02:52:58;;;;;;;4.40;4.05;;;;;;;-141.48;100.00;69781.59;5207434;28;20025;-59
2022/04/18 02:55:29;;;;;;;21.27;4.90;;;;;;;-141.48;100.00;69781.59;5207224;28;20450;-59
2022/04/18 02:57:59;;;;;;;3.78;3.58;;;;;;;-141.48;100.00;69781.59;5225196;28;20391;-60
2022/04/18 03:00:30;;;;;;;4.15;3.95;;;;;;;-141.48;100.00;69781.59;5207618;28;20021;-59
2022/04/18 03:03:00;;;;;;;4.18;3.88;;;;;;;-141.48;100.00;69781.59;5207395;28;20298;-59
2022/04/18 03:05:31;;;;;;;4.53;4.22;;;;;;;-141.48;100.00;69781.59;5206937;28;20047;-59
2022/04/18 03:08:02;;;;;;;3.40;3.20;;;;;;;-141.48;100.00;69781.59;5207358;28;20570;-59
2022/04/18 03:13:21;;;;;;;7.05;4.15;;;;;;;-141.48;100.00;69781.59;5225630;28;20450;-59
2022/04/18 03:15:51;;;;;;;4.30;3.95;;;;;;;-141.48;100.00;69781.59;5207618;28;20029;-58
2022/04/18 03:18:22;;;;;;;4.32;4.07;;;;;;;-141.48;100.00;69781.59;5207347;28;20024;-59
2022/04/18 03:20:52;;;;;;;4.13;3.70;;;;;;;-141.48;100.00;69781.59;5207179;28;20548;-58
2022/04/18 03:23:23;;;;;;;4.15;3.88;;;;;;;-141.48;100.00;69781.59;5207065;28;20075;-58
2022/04/18 03:25:53;;;;;;;4.28;4.07;;;;;;;-141.48;100.00;69781.59;5207219;28;20083;-59
2022/04/18 03:28:25;;;;;;;5.32;4.25;;;;;;;-141.48;100.00;69781.59;5224816;28;20033;-60
2022/04/18 03:30:56;;;;;;;4.47;4.15;;;;;;;-141.48;100.00;69781.59;5201326;28;20461;-60
2022/04/18 03:33:26;;;;;;;4.20;3.88;;;;;;;-141.48;100.00;69781.59;5202807;28;20129;-60
2022/04/18 03:41:35;;;;;;;5.03;3.30;;;;;;;-141.48;100.00;69781.59;5204279;28;20116;-59
2022/04/18 03:44:05;;;;;;;4.82;4.40;;;;;;;-141.48;100.00;69781.59;5186411;28;20112;-60
2022/04/18 03:46:36;;;;;;;4.70;4.30;;;;;;;-141.48;100.00;69781.59;5186450;28;20025;-60
2022/04/18 03:49:06;;;;;;;5.22;4.93;;;;;;;-141.48;100.00;69781.59;5190051;28;20026;-59
2022/04/18 03:51:36;;;;;;;4.65;4.35;;;;;;;-141.48;100.00;69781.59;5208099;28;20055;-64
2022/04/18 03:54:07;;;;;;;4.15;3.95;;;;;;;-141.48;100.00;69781.59;5190219;28;20036;-59
2022/04/18 03:56:38;;;;;;;5.22;4.82;;;;;;;-141.48;100.00;69781.59;5190055;28;20025;-60
2022/04/18 03:59:08;;;;;;;4.55;4.30;;;;;;;-141.48;100.00;69781.59;5190302;28;20053;-60
2022/04/18 04:01:39;;;;;;;3.45;3.35;;;;;;;-141.48;100.00;69781.59;5190542;28;20049;-60
2022/04/18 04:04:09;;;;;;;4.13;3.92;;;;;;;-141.48;100.00;69781.59;5189856;28;20029;-60
2022/04/18 04:06:40;;;;;;;4.43;4.15;;;;;;;-141.48;100.00;69781.59;5190211;28;20067;-59
2022/04/18 04:09:10;;;;;;;8.52;5.25;;;;;;;-141.48;100.00;69781.59;5189898;28;20456;-60
2022/04/18 04:11:41;;;;;;;5.82;5.45;;;;;;;-141.48;100.00;69781.59;5207668;28;20080;-60
2022/04/18 04:14:11;;;;;;;4.80;4.50;;;;;;;-141.48;100.00;69781.59;5189675;28;20021;-60
2022/04/18 04:16:41;;;;;;;4.47;4.28;;;;;;;-141.48;100.00;69781.59;5190056;28;20120;-59
2022/04/18 04:19:12;;;;;;;5.93;5.63;;;;;;;-141.48;100.00;69781.59;5207392;28;20079;-59
2022/04/18 04:21:42;;;;;;;4.75;4.55;;;;;;;-141.48;100.00;69781.59;5189741;28;20021;-59
2022/04/18 04:24:13;;;;;;;4.65;4.35;;;;;;;-141.48;100.00;69781.59;5189304;28;20100;-60
2022/04/18 04:26:44;;;;;;;5.30;4.85;;;;;;;-141.48;100.00;69781.59;5207601;28;20030;-57
2022/04/18 04:29:15;;;;;;;5.28;4.97;;;;;;;-141.48;100.00;69781.59;5189447;28;20495;-57
2022/04/18 04:31:45;;;;;;;4.85;4.45;;;;;;;-141.48;100.00;69781.59;5201692;28;20024;-57
2022/04/18 04:34:16;;;;;;;4.63;4.32;;;;;;;-141.48;100.00;69781.59;5209843;28;20021;-57
2022/04/18 04:36:47;;;;;;;9.30;5.60;;;;;;;-141.48;100.00;69781.59;5209689;28;20032;-57
2022/04/18 04:39:17;;;;;;;5.55;4.95;;;;;;;-141.48;100.00;69781.59;5209625;28;20087;-58
2022/04/18 04:41:47;;;;;;;5.25;4.95;;;;;;;-141.48;100.00;69781.59;5208431;28;20511;-58
2022/04/18 04:44:18;;;;;;;4.00;3.80;;;;;;;-141.48;100.00;69781.59;5205199;28;20104;-57
2022/04/18 04:46:48;;;;;;;5.85;5.43;;;;;;;-141.48;100.00;69781.59;5209511;28;20052;-57
2022/04/18 04:49:19;;;;;;;4.65;4.45;;;;;;;-141.48;100.00;69781.59;5209913;28;20079;-58
2022/04/18 04:51:49;;;;;;;4.90;4.63;;;;;;;-141.48;100.00;69781.59;5209531;28;20075;-59
2022/04/18 04:54:20;;;;;;;6.00;5.18;;;;;;;-141.48;100.00;69781.59;5208883;28;20025;-58
2022/04/18 04:56:50;;;;;;;6.03;5.70;;;;;;;-141.48;100.00;69781.59;5227449;28;20013;-58
2022/04/18 04:59:21;;;;;;;6.55;5.03;;;;;;;-141.48;100.00;69781.59;5208582;28;20025;-58
2022/04/18 05:01:51;;;;;;;4.32;4.13;;;;;;;-141.48;100.00;69781.59;5209142;28;20115;-58
2022/04/18 05:04:25;;;;;;;4.60;4.32;;;;;;;-141.48;100.00;69781.59;5209106;28;20021;-58
2022/04/18 05:06:55;;;;;;;6.07;4.85;;;;;;;-141.48;100.00;69781.59;5209506;28;20544;-58
2022/04/18 05:09:26;;;;;;;5.15;4.85;;;;;;;-141.48;100.00;69781.59;5209224;28;20033;-57
2022/04/18 05:11:56;;;;;;;5.38;4.97;;;;;;;-141.48;100.00;69781.59;5227362;28;20037;-58
2022/04/18 05:14:27;;;;;;;5.63;5.28;;;;;;;-141.48;100.00;69781.59;5209361;28;20021;-58
2022/04/18 05:16:58;;;;;;;7.18;6.65;;;;;;;-141.48;100.00;69781.59;5209438;28;20094;-58
2022/04/18 05:19:28;;;;;;;6.90;6.30;;;;;;;-141.48;100.00;69781.59;5209037;28;20104;-58
2022/04/18 05:21:59;;;;;;;6.18;5.65;;;;;;;-141.48;100.00;69781.59;5226705;28;20032;-59
2022/04/18 05:24:29;;;;;;;5.10;4.85;;;;;;;-141.48;100.00;69781.59;5208436;28;20033;-58
2022/04/18 05:27:00;;;;;;;5.95;5.55;;;;;;;-141.48;100.00;69781.59;5208749;28;20032;-58
2022/04/18 05:29:30;;;;;;;6.53;6.03;;;;;;;-141.48;100.00;69781.59;5208813;28;20056;-58
2022/04/18 05:32:01;;;;;;;5.20;4.93;;;;;;;-141.48;100.00;69781.59;5213982;22;20491;-58
2022/04/18 05:34:31;;;;;;;7.00;5.38;;;;;;;-141.48;100.00;69781.59;5192526;28;20018;-57
2022/04/18 05:37:02;;;;;;;5.78;5.38;;;;;;;-141.48;100.00;69781.59;5186008;28;20026;-61
2022/04/18 05:39:33;;;;;;;4.88;4.63;;;;;;;-141.48;100.00;69781.59;5184482;28;20022;-58
2022/04/18 05:42:06;;;;;;;5.88;5.47;;;;;;;-141.48;100.00;69781.59;5183670;28;20040;-58
2022/04/18 05:44:36;;;;;;;6.15;5.78;;;;;;;-141.48;100.00;69781.59;5182288;28;20428;-57
2022/04/18 05:47:07;;;;;;;5.63;5.32;;;;;;;-141.48;100.00;69781.59;5184067;28;20030;-58
2022/04/18 05:49:37;;;;;;;6.03;5.63;;;;;;;-141.48;100.00;69781.59;5183839;28;20034;-59
2022/04/18 05:52:08;;;;;;;6.68;6.20;;;;;;;-141.48;100.00;69781.59;5184422;28;20026;-58
2022/04/18 05:54:38;;;;;;;6.03;5.63;;;;;;;-141.48;100.00;69781.59;5183770;28;20030;-59
2022/04/18 05:57:09;;;;;;;6.97;6.38;;;;;;;-141.48;100.00;69781.59;5167451;28;20028;-59
2022/04/18 05:59:39;;;;;;;7.22;6.47;;;;;;;-141.48;100.00;69781.59;5181007;28;20022;-59
2022/04/18 06:02:10;;;;;;;5.60;5.30;;;;;;;-141.48;100.00;69781.59;5165282;28;20030;-59
2022/04/18 06:04:40;;;;;;;6.13;5.80;;;;;;;-141.48;100.00;69781.59;5164918;28;20423;-60
2022/04/18 06:07:11;;;;;;;6.20;5.60;;;;;;;-141.48;100.00;69781.59;5183832;28;20496;-59
2022/04/18 06:09:42;;;;;;;5.32;5.03;;;;;;;-141.48;100.00;69781.59;5183572;28;20029;-60
2022/04/18 06:12:13;;;;;;;5.80;5.13;;;;;;;-141.48;100.00;69781.59;5183604;28;20476;-60
2022/04/18 06:14:43;;;;;;;5.40;5.00;;;;;;;-141.48;100.00;69781.59;5183449;28;20022;-59
2022/04/18 06:17:13;;;;;;;8.82;4.65;;;;;;;-141.48;100.00;69781.59;5183784;28;20507;-59
2022/04/18 06:19:44;;;;;;;4.63;4.25;;;;;;;-141.48;100.00;69781.59;5183188;28;20020;-59
2022/04/18 06:22:16;;;;;;;4.63;4.40;;;;;;;-141.48;100.00;69781.59;5183366;28;20060;-58
2022/04/18 06:24:46;;;;;;;4.35;4.15;;;;;;;-141.48;100.00;69781.59;5183013;28;20030;-60
2022/04/18 06:27:17;;;;;;;4.93;4.38;;;;;;;-141.48;100.00;69781.59;5183398;28;20044;-59
2022/04/18 06:29:47;;;;;;;3.90;3.70;;;;;;;-141.48;100.00;69781.59;5166932;28;20030;-60
2022/04/18 06:32:18;;;;;;;4.45;4.20;;;;;;;-141.48;100.00;69781.59;5183528;28;20275;-59
2022/04/18 06:34:48;;;;;;;3.15;2.95;;;;;;;-141.48;100.00;69781.59;5182824;28;20022;-58
2022/04/18 06:37:19;;;;;;;4.10;3.90;;;;;;;-141.48;100.00;69781.59;5183219;28;20033;-58
2022/04/18 06:39:49;;;;;;;3.03;2.83;;;;;;;-141.48;100.00;69781.59;5183283;28;20022;-59
2022/04/18 06:42:20;;;;;;;4.13;3.83;;;;;;;-141.48;100.00;69781.59;5184535;28;20021;-58
2022/04/18 06:44:50;;;;;;;2.97;2.78;;;;;;;-141.48;100.00;69781.59;5182784;28;20484;-59
2022/04/18 06:47:21;;;;;;;3.97;3.67;;;;;;;-141.48;100.00;69781.59;5183190;28;20230;-58
2022/04/18 06:49:51;;;;;;;4.18;3.33;;;;;;;-141.48;100.00;69781.59;5182568;28;20428;-58
2022/04/18 06:52:22;;;;;;;2.97;2.88;;;;;;;-141.48;100.00;69781.59;5183014;28;20540;-59
2022/04/18 06:54:52;;;;;;;10.68;3.40;;;;;;;-141.48;100.00;69781.59;5182729;28;20026;-58
2022/04/18 06:57:23;;;;;;;4.43;3.30;;;;;;;-141.48;100.00;69781.59;5166815;28;20030;-58
2022/04/18 06:59:55;;;;;;;4.22;3.75;;;;;;;-141.48;100.00;69781.59;5183327;28;20376;-57
2022/04/18 07:02:25;;;;;;;3.45;3.33;;;;;;;-141.48;100.00;69781.59;5182812;28;20029;-58
2022/04/18 07:04:56;;;;;;;4.38;3.97;;;;;;;-141.48;100.00;69781.59;5182240;28;20025;-58
2022/04/18 07:07:26;;;;;;;3.58;3.42;;;;;;;-141.48;100.00;69781.59;5166690;28;20033;-57
2022/04/18 07:09:58;;;;;;;6.95;3.72;;;;;;;-141.48;100.00;69781.59;5182963;28;20029;-58
2022/04/18 07:12:29;;;;;;;3.47;3.28;;;;;;;-141.48;100.00;69781.59;5183479;28;20034;-59
2022/04/18 07:14:59;;;;;;;3.53;3.33;;;;;;;-141.48;100.00;69781.59;5183485;28;20056;-58
2022/04/18 07:17:30;;;;;;;4.15;3.88;;;;;;;-141.48;100.00;69781.59;5184100;28;20030;-57
2022/04/18 07:20:01;;;;;;;3.30;3.10;;;;;;;-141.48;100.00;69781.59;5182626;28;20514;-58
2022/04/18 07:22:31;;;;;;;4.25;3.85;;;;;;;-141.48;100.00;69781.59;5183915;28;20021;-59
2022/04/18 07:25:02;;;;;;;3.55;3.17;;;;;;;-141.48;100.00;69781.59;5187003;28;20068;-59
2022/04/18 07:27:33;;;;;;;3.58;3.28;;;;;;;-141.48;100.00;69781.59;5186962;28;20045;-58
2022/04/18 07:30:04;;;;;;;2.88;2.70;;;;;;;-141.48;100.00;69781.59;5186825;28;20102;-57
2022/04/18 07:32:43;;;;;;;5.38;4.15;;;;;;;-141.48;100.00;69781.59;5186604;28;20044;-58
2022/04/18 07:35:13;;;;;;;2.67;2.58;;;;;;;-141.48;100.00;69781.59;5186277;28;20030;-60
2022/04/18 07:40:32;;;;;;;3.20;3.00;;;;;;;-141.48;100.00;69781.59;5188081;28;20119;-57
2022/04/18 07:43:03;;;;;;;4.35;3.80;;;;;;;-141.48;100.00;69781.59;5186537;28;20473;-61
2022/04/18 07:45:35;;;;;;;6.13;3.33;;;;;;;-141.48;100.00;69781.59;5185340;28;20167;-60
2022/04/18 07:48:10;;;;;;;3.03;2.90;;;;;;;-141.48;100.00;69781.59;5186654;28;20029;-61
2022/04/18 07:53:31;;;;;;;3.47;3.28;;;;;;;-141.48;100.00;69781.59;5187478;28;20419;-59
2022/04/18 07:56:01;;;;;;;3.47;3.33;;;;;;;-141.48;100.00;69781.59;5186082;28;20029;-58
2022/04/18 07:58:32;;;;;;;3.65;3.45;;;;;;;-141.48;100.00;69781.59;5187335;28;20024;-59
2022/04/18 08:01:02;;;;;;;3.90;3.70;;;;;;;-141.48;100.00;69781.59;5186355;28;20029;-60
2022/04/18 08:03:34;;;;;;;2.85;2.75;;;;;;;-141.48;100.00;69781.59;5185720;28;20029;-58
2022/04/18 08:06:05;;;;;;;3.22;3.13;;;;;;;-141.48;100.00;69781.59;5186034;28;20034;-58
2022/04/18 08:08:43;;;;;;;3.78;3.40;;;;;;;-141.48;100.00;69781.59;5186139;28;20057;-57
2022/04/18 08:11:17;;;;;;;2.78;2.53;;;;;;;-141.48;100.00;69781.59;5169807;28;20061;-59
2022/04/18 08:13:48;;;;;;;3.00;2.90;;;;;;;-141.48;100.00;69781.59;5186004;28;20680;-57
2022/04/18 08:16:19;;;;;;;3.33;3.08;;;;;;;-141.48;100.00;69781.59;5185515;28;20036;-58
2022/04/18 08:18:51;;;;;;;3.83;3.63;;;;;;;-141.48;100.00;69781.59;5186816;28;20022;-58
2022/04/18 08:21:22;;;;;;;3.95;3.75;;;;;;;-141.48;100.00;69781.59;5185716;28;20491;-57
2022/04/18 08:23:53;;;;;;;2.67;2.58;;;;;;;-141.48;100.00;69781.59;5185611;28;20026;-58
2022/04/18 08:26:24;;;;;;;3.42;3.22;;;;;;;-141.48;100.00;69781.59;5187010;28;20030;-59
2022/04/18 08:28:54;;;;;;;3.80;3.50;;;;;;;-141.48;100.00;69781.59;5185637;28;20196;-58
2022/04/18 08:31:25;;;;;;;3.25;3.15;;;;;;;-141.48;100.00;69781.59;5185388;28;20045;-58
2022/04/18 08:33:56;;;;;;;5.13;2.92;;;;;;;-141.48;100.00;69781.59;5184917;28;20034;-60
2022/04/18 08:36:26;;;;;;;2.83;2.72;;;;;;;-141.48;100.00;69781.59;5185506;28;20064;-58
2022/04/18 08:38:56;;;;;;;3.20;2.95;;;;;;;-141.48;100.00;69781.59;5185589;28;20014;-59
2022/04/18 08:41:38;;;;;;;3.35;3.25;;;;;;;-141.48;100.00;69781.59;5169419;28;20036;-58
2022/04/18 08:44:09;;;;;;;2.88;2.67;;;;;;;-141.48;100.00;69781.59;5185256;28;20022;-60
2022/04/18 08:46:40;;;;;;;2.75;2.65;;;;;;;-141.48;100.00;69781.59;5185316;28;20383;-58
2022/04/18 08:53:02;;;;;;;3.15;3.00;;;;;;;-141.48;100.00;69781.59;5186800;28;20041;-60
2022/04/18 08:55:02;;;;;;;4.75;2.35;;;;;;;-141.48;100.00;69781.59;5176779;28;20022;-60
2022/04/18 08:57:33;;;;;;;3.28;3.08;;;;;;;-141.48;100.00;69781.59;5169476;28;20034;-60
2022/04/18 09:00:04;;;;;;;2.47;2.28;;;;;;;-141.48;100.00;69781.59;5186015;28;20060;-61
2022/04/18 09:02:36;;;;;;;2.83;2.55;;;;;;;-141.48;100.00;69781.59;5185723;28;20026;-61
2022/04/18 09:05:11;;;;;;;3.10;3.00;;;;;;;-141.48;100.00;69781.59;5185137;28;20037;-60
2022/04/18 09:07:43;;;;;;;4.50;4.20;;;;;;;-141.48;100.00;69781.59;5186028;28;20040;-60
2022/04/18 09:10:23;;;;;;;3.08;2.88;;;;;;;-141.48;100.00;69781.59;5184827;28;20125;-60
2022/04/18 09:13:02;;;;;;;3.42;3.13;;;;;;;-141.48;100.00;69781.59;5184747;28;20027;-61
2022/04/18 09:15:49;;;;;;;5.65;3.72;;;;;;;-141.48;100.00;69781.59;5184620;28;20021;-59
2022/04/18 09:18:21;;;;;;;3.67;3.38;;;;;;;-141.48;100.00;69781.59;5184795;28;20398;-59
2022/04/18 09:20:54;;;;;;;3.17;3.08;;;;;;;-141.48;100.00;69781.59;5184518;28;20042;-60
2022/04/18 09:23:33;;;;;;;3.53;3.35;;;;;;;-141.48;100.00;69781.59;5184028;28;20026;-60
2022/04/18 09:26:08;;;;;;;2.80;2.60;;;;;;;-141.48;100.00;69781.59;5184513;28;20030;-60
2022/04/18 09:28:40;;;;;;;2.95;2.85;;;;;;;-141.48;100.00;69781.59;5184283;28;20026;-62
2022/04/18 09:31:12;;;;;;;2.70;2.60;;;;;;;-141.48;100.00;69781.59;5184189;28;20097;-61
2022/04/18 09:33:54;;;;;;;3.63;3.30;;;;;;;-141.48;100.00;69781.59;5185078;28;20029;-62
2022/04/18 09:36:24;;;;;;;5.65;2.80;;;;;;;-141.48;100.00;69781.59;5185492;28;20029;-59
2022/04/18 09:38:56;;;;;;;3.13;2.92;;;;;;;-141.48;100.00;69781.59;5182770;28;20025;-59
2022/04/18 09:41:31;;;;;;;2.85;2.72;;;;;;;-141.48;100.00;69781.59;5168456;28;20037;-62
2022/04/18 09:44:02;;;;;;;4.00;3.70;;;;;;;-141.48;100.00;69781.59;5184469;28;20080;-61
2022/04/18 09:46:33;;;;;;;3.22;3.13;;;;;;;-141.48;100.00;69781.59;5183908;28;20447;-60
2022/04/18 09:49:04;;;;;;;4.38;2.92;;;;;;;-141.48;100.00;69781.59;5184781;28;20392;-60
2022/04/18 09:51:37;;;;;;;2.17;2.08;;;;;;;-141.48;100.00;69781.59;5184570;28;20070;-60
2022/04/18 09:54:08;;;;;;;4.20;2.33;;;;;;;-141.48;100.00;69781.59;5184041;28;20022;-60
2022/04/18 09:56:48;;;;;;;2.95;2.67;;;;;;;-141.48;100.00;69781.59;5184245;28;20442;-62
2022/04/18 09:59:19;;;;;;;3.25;3.05;;;;;;;-141.48;100.00;69781.59;5167963;28;20033;-60
2022/04/18 10:01:51;;;;;;;2.97;2.78;;;;;;;-141.48;100.00;69781.59;5183860;28;20026;-59
2022/04/18 10:04:22;;;;;;;3.15;2.83;;;;;;;-141.48;100.00;69781.59;5183239;28;20036;-60
2022/04/18 10:06:53;;;;;;;4.13;3.92;;;;;;;-141.48;100.00;69781.59;5183905;28;20536;-60
2022/04/18 10:09:24;;;;;;;3.10;2.92;;;;;;;-141.48;100.00;69781.59;5183467;28;20097;-61
2022/04/18 10:11:55;;;;;;;3.28;3.08;;;;;;;-141.48;100.00;69781.59;5183536;28;20030;-62
2022/04/18 10:14:26;;;;;;;3.30;3.10;;;;;;;-141.48;100.00;69781.59;5182913;28;20380;-60
2022/04/18 10:16:59;;;;;;;3.10;2.80;;;;;;;-141.48;100.00;69781.59;5183488;28;20033;-61
2022/04/18 10:19:51;;;;;;;3.50;3.22;;;;;;;-141.48;100.00;69781.59;5167596;28;20018;-61
2022/04/18 10:22:50;;;;;;;3.92;3.63;;;;;;;-141.48;100.00;69781.59;5183214;28;20381;-63
2022/04/18 10:25:39;;;;;;;3.10;2.78;;;;;;;-141.48;100.00;69781.59;5183114;28;20131;-60
2022/04/18 10:28:14;;;;;;;4.63;3.58;;;;;;;-141.48;100.00;69781.59;5183453;28;20492;-63
2022/04/18 10:30:51;;;;;;;3.75;3.45;;;;;;;-141.48;100.00;69781.59;5183043;28;20392;-63
2022/04/18 10:33:23;;;;;;;2.85;2.65;;;;;;;-141.48;100.00;69781.59;5182853;28;20026;-63
2022/04/18 10:36:03;;;;;;;2.95;2.25;;;;;;;-141.48;100.00;69781.59;5166699;28;20113;-61
2022/04/18 10:38:37;;;;;;;;;;;;;;;-141.48;100.00;69781.59;5183965;28;20515;-60
2022/04/18 10:41:36;;;;;;;2.72;2.58;;;;;;;-141.48;100.00;69781.59;5183174;28;19913;-62
2022/04/18 10:44:08;;;;;;;;;;;;;;;-141.48;100.00;69781.59;5182947;28;20018;-62
2022/04/18 10:46:49;;;;;;;3.83;3.42;;;;;;;-141.48;100.00;69781.59;5184252;28;20367;-63
2022/04/18 10:49:23;;;;;;;3.30;3.03;;;;;;;-141.48;100.00;69781.59;5182865;28;20058;-60
2022/04/18 10:51:54;;;;;;;2.55;2.45;;;;;;;-141.48;100.00;69781.59;5166498;28;20026;-62
2022/04/18 10:54:26;;;;;;;3.42;3.13;;;;;;;-141.48;100.00;69781.59;5182789;28;20088;-60
2022/04/18 10:56:57;;;;;;;3.03;2.83;;;;;;;-141.48;100.00;69781.59;5181956;28;20063;-62
2022/04/18 10:59:36;;;;;;;2.92;2.72;;;;;;;-141.48;100.00;69781.59;5182758;28;20022;-62
2022/04/18 11:02:07;;;;;;;3.27;2.93;;;;;;;-141.48;100.00;69781.59;5182769;28;20029;-62
2022/04/18 11:04:41;;;;;;;3.58;3.17;;;;;;;-141.48;100.00;69781.59;5183583;28;20281;-63
2022/04/18 11:07:11;;;;;;;2.78;2.67;;;;;;;-141.48;100.00;69781.59;5182694;28;20034;-59
2022/04/18 11:09:48;;;;;;;3.65;3.38;;;;;;;-141.48;100.00;69781.59;5182156;28;20032;-61
2022/04/18 11:12:20;;;;;;;3.03;2.92;;;;;;;-141.48;100.00;69781.59;5182558;28;20117;-61
2022/04/18 11:15:01;;;;;;;3.47;3.08;;;;;;;-141.48;100.00;69781.59;5182318;28;20116;-60
2022/04/18 11:17:38;;;;;;;2.88;2.67;;;;;;;-141.48;100.00;69781.59;5182842;28;20029;-59
2022/04/18 11:20:31;;;;;;;2.25;2.15;;;;;;;-141.48;100.00;69781.59;5182671;28;20093;-62
2022/04/18 11:23:27;;;;;;;3.83;3.47;;;;;;;-141.48;100.00;69781.59;5182384;28;20112;-62
2022/04/18 11:26:00;;;;;;;4.10;3.80;;;;;;;-141.48;100.00;69781.59;5182860;28;20033;-61
2022/04/18 11:28:32;;;;;;;3.92;3.72;;;;;;;-141.48;100.00;69781.59;5165824;28;20115;-61
2022/04/18 11:33:52;;;;;;;3.92;3.72;;;;;;;-141.48;100.00;69781.59;5168011;28;20050;-82
2022/04/18 11:36:24;;;;;;;3.45;3.30;;;;;;;-141.48;100.00;69781.59;5189320;28;20037;-80
2022/04/18 11:39:07;;;;;;;3.90;3.60;;;;;;;-141.48;100.00;69781.59;5191875;28;20022;-81
2022/04/18 11:41:37;;;;;;;2.58;2.47;;;;;;;-141.48;100.00;69781.59;5193921;28;20444;-80
2022/04/18 11:44:08;;;;;;;5.50;3.70;;;;;;;-141.48;100.00;69781.59;5193520;28;20034;-79
2022/04/18 11:46:39;;;;;;;3.95;3.75;;;;;;;-141.48;100.00;69781.59;5199321;28;20077;-80
2022/04/18 11:49:09;;;;;;;7.75;2.78;;;;;;;-141.48;100.00;69781.59;5202633;28;20085;-80
2022/04/18 11:51:41;;;;;;;3.10;2.90;;;;;;;-141.48;100.00;69781.59;5201719;28;20546;-82
2022/04/18 11:54:11;;;;;;;3.15;2.95;;;;;;;-141.48;100.00;69781.59;5191454;28;20053;-81